createdAt,value
2018-02-15T00:00:00.742Z,98239.04
2018-02-15T00:00:32.398Z,98239.93
2018-02-15T00:01:04.053Z,98237.38
2018-02-15T00:01:35.713Z,98240.78
2018-02-15T00:02:07.380Z,98242.06
2018-02-15T00:02:39.046Z,98239.94
2018-02-15T00:03:10.700Z,98242.12
2018-02-15T00:03:42.357Z,98243.81
2018-02-15T00:04:14.053Z,98245.94
2018-02-15T00:04:45.715Z,98245.52
2018-02-15T00:05:17.421Z,98241.25
2018-02-15T00:05:49.086Z,98247.55
2018-02-15T00:06:20.755Z,98243.34
2018-02-15T00:06:52.416Z,98251.38
2018-02-15T00:07:24.076Z,98247.55
2018-02-15T00:07:55.738Z,98250.95
2018-02-15T00:08:27.413Z,98254.34
2018-02-15T00:08:59.070Z,98254.78
2018-02-15T00:09:30.734Z,98250.52
2018-02-15T00:10:02.431Z,98257.75
2018-02-15T00:10:34.133Z,98253.09
2018-02-15T00:11:05.797Z,98250.53
2018-02-15T00:11:37.463Z,98255.20
2018-02-15T00:12:09.126Z,98255.22
2018-02-15T00:12:40.785Z,98262.48
2018-02-15T00:13:12.447Z,98260.36
2018-02-15T00:13:44.113Z,98264.61
2018-02-15T00:14:15.837Z,98259.94
2018-02-15T00:14:47.493Z,98258.66
2018-02-15T00:15:19.158Z,98259.94
2018-02-15T00:15:50.822Z,98262.48
2018-02-15T00:16:22.481Z,98261.67
2018-02-15T00:16:54.132Z,98257.05
2018-02-15T00:17:25.792Z,98262.50
2018-02-15T00:17:57.455Z,98260.83
2018-02-15T00:18:29.118Z,98249.73
2018-02-15T00:19:00.821Z,98255.77
2018-02-15T00:19:32.525Z,98255.31
2018-02-15T00:20:04.181Z,98249.81
2018-02-15T00:20:35.833Z,98247.73
2018-02-15T00:21:07.499Z,98247.27
2018-02-15T00:21:39.159Z,98253.22
2018-02-15T00:22:10.869Z,98249.83
2018-02-15T00:22:42.530Z,98250.25
2018-02-15T00:23:14.199Z,98256.20
2018-02-15T00:23:45.864Z,98252.80
2018-02-15T00:24:17.513Z,98254.08
2018-02-15T00:24:49.208Z,98252.38
2018-02-15T00:25:20.877Z,98251.52
2018-02-15T00:25:52.534Z,98254.93
2018-02-15T00:26:24.254Z,98253.66
2018-02-15T00:26:55.919Z,98254.93
2018-02-15T00:27:27.581Z,98256.20
2018-02-15T00:27:59.241Z,98253.22
2018-02-15T00:28:30.906Z,98250.20
2018-02-15T00:29:02.589Z,98256.63
2018-02-15T00:29:34.249Z,98256.63
2018-02-15T00:30:05.906Z,98251.09
2018-02-15T00:30:37.578Z,98248.59
2018-02-15T00:31:09.237Z,98243.91
2018-02-15T00:31:40.934Z,98248.16
2018-02-15T00:32:12.637Z,98243.87
2018-02-15T00:32:44.298Z,98238.33
2018-02-15T00:33:15.954Z,98243.48
2018-02-15T00:33:47.620Z,98243.48
2018-02-15T00:34:19.277Z,98234.97
2018-02-15T00:34:50.930Z,98236.24
2018-02-15T00:35:22.586Z,98236.25
2018-02-15T00:35:54.250Z,98231.14
2018-02-15T00:36:25.934Z,98232.80
2018-02-15T00:36:57.604Z,98223.81
2018-02-15T00:37:29.332Z,98230.58
2018-02-15T00:38:00.988Z,98228.48
2018-02-15T00:38:32.650Z,98228.45
2018-02-15T00:39:04.306Z,98227.59
2018-02-15T00:39:35.986Z,98225.00
2018-02-15T00:40:07.652Z,98234.31
2018-02-15T00:40:39.322Z,98229.57
2018-02-15T00:41:10.987Z,98227.39
2018-02-15T00:41:42.651Z,98226.08
2018-02-15T00:42:14.313Z,98229.05
2018-02-15T00:42:46.014Z,98226.50
2018-02-15T00:43:17.670Z,98220.97
2018-02-15T00:43:49.331Z,98224.75
2018-02-15T00:44:20.994Z,98228.62
2018-02-15T00:44:52.653Z,98232.84
2018-02-15T00:45:24.329Z,98225.17
2018-02-15T00:45:56.030Z,98227.35
2018-02-15T00:46:27.690Z,98227.35
2018-02-15T00:46:59.350Z,98222.24
2018-02-15T00:47:31.046Z,98227.34
2018-02-15T00:48:02.728Z,98224.74
2018-02-15T00:48:34.437Z,98225.98
2018-02-15T00:49:06.110Z,98222.63
2018-02-15T00:49:37.769Z,98223.94
2018-02-15T00:50:09.429Z,98223.48
2018-02-15T00:50:41.089Z,98222.19
2018-02-15T00:51:12.753Z,98222.62
2018-02-15T00:51:44.406Z,98219.63
2018-02-15T00:52:16.068Z,98219.63
2018-02-15T00:52:47.780Z,98225.21
2018-02-15T00:53:19.442Z,98222.25
2018-02-15T00:53:51.101Z,98229.95
2018-02-15T00:54:22.757Z,98228.67
2018-02-15T00:54:54.445Z,98227.88
2018-02-15T00:55:26.105Z,98230.44
2018-02-15T00:55:57.777Z,98234.30
2018-02-15T00:56:29.437Z,98230.91
2018-02-15T00:57:01.106Z,98229.67
2018-02-15T00:57:32.760Z,98228.40
2018-02-15T00:58:04.429Z,98227.55
2018-02-15T00:58:36.090Z,98229.25
2018-02-15T00:59:07.794Z,98233.94
2018-02-15T00:59:39.458Z,98238.23
2018-02-15T01:00:11.171Z,98233.08
2018-02-15T01:00:42.830Z,98228.41
2018-02-15T01:01:14.486Z,98232.27
2018-02-15T01:01:46.145Z,98231.80
2018-02-15T01:02:17.811Z,98239.41
2018-02-15T01:02:49.480Z,98231.33
2018-02-15T01:03:21.142Z,98231.29
2018-02-15T01:03:52.829Z,98231.28
2018-02-15T01:04:24.490Z,98236.38
2018-02-15T01:04:56.158Z,98239.33
2018-02-15T01:05:27.818Z,98242.34
2018-02-15T01:05:59.478Z,98244.05
2018-02-15T01:06:31.149Z,98242.39
2018-02-15T01:07:02.811Z,98240.70
2018-02-15T01:07:34.470Z,98241.59
2018-02-15T01:08:06.129Z,98247.08
2018-02-15T01:08:37.790Z,98248.39
2018-02-15T01:09:09.455Z,98247.55
2018-02-15T01:09:41.113Z,98250.10
2018-02-15T01:10:12.782Z,98252.23
2018-02-15T01:10:44.482Z,98247.59
2018-02-15T01:11:16.190Z,98244.14
2018-02-15T01:11:47.848Z,98243.72
2018-02-15T01:12:19.515Z,98242.44
2018-02-15T01:12:51.181Z,98246.27
2018-02-15T01:13:22.842Z,98244.15
2018-02-15T01:13:54.497Z,98242.02
2018-02-15T01:14:26.161Z,98238.66
2018-02-15T01:14:57.818Z,98242.48
2018-02-15T01:15:29.482Z,98243.30
2018-02-15T01:16:01.145Z,98244.15
2018-02-15T01:16:32.859Z,98246.27
2018-02-15T01:17:04.517Z,98248.87
2018-02-15T01:17:36.181Z,98244.66
2018-02-15T01:18:07.839Z,98244.23
2018-02-15T01:18:39.501Z,98250.20
2018-02-15T01:19:11.157Z,98243.39
2018-02-15T01:19:42.817Z,98245.94
2018-02-15T01:20:14.478Z,98247.55
2018-02-15T01:20:46.138Z,98241.64
2018-02-15T01:21:17.796Z,98246.75
2018-02-15T01:21:49.501Z,98245.05
2018-02-15T01:22:21.164Z,98249.73
2018-02-15T01:22:52.826Z,98249.78
2018-02-15T01:23:24.496Z,98249.39
2018-02-15T01:23:56.161Z,98250.20
2018-02-15T01:24:27.825Z,98249.34
2018-02-15T01:24:59.481Z,98240.41
2018-02-15T01:25:31.141Z,98251.52
2018-02-15T01:26:02.801Z,98247.27
2018-02-15T01:26:34.466Z,98248.96
2018-02-15T01:27:06.168Z,98239.61
2018-02-15T01:27:37.851Z,98241.73
2018-02-15T01:28:09.785Z,98244.75
2018-02-15T01:28:41.440Z,98243.91
2018-02-15T01:29:13.242Z,98249.82
2018-02-15T01:29:44.902Z,98247.27
2018-02-15T01:30:16.564Z,98251.58
2018-02-15T01:30:48.223Z,98251.58
2018-02-15T01:31:19.877Z,98248.63
2018-02-15T01:31:51.534Z,98251.19
2018-02-15T01:32:23.200Z,98248.58
2018-02-15T01:32:54.861Z,98246.41
2018-02-15T01:33:26.575Z,98248.87
2018-02-15T01:33:58.233Z,98248.87
2018-02-15T01:34:29.890Z,98251.84
2018-02-15T01:35:01.554Z,98253.98
2018-02-15T01:35:33.214Z,98245.89
2018-02-15T01:36:04.869Z,98247.59
2018-02-15T01:36:36.526Z,98242.91
2018-02-15T01:37:08.195Z,98250.53
2018-02-15T01:37:39.853Z,98242.45
2018-02-15T01:38:11.516Z,98244.61
2018-02-15T01:38:43.212Z,98240.73
2018-02-15T01:39:14.877Z,98238.62
2018-02-15T01:39:46.541Z,98243.34
2018-02-15T01:40:18.206Z,98239.94
2018-02-15T01:40:49.861Z,98234.88
2018-02-15T01:41:21.566Z,98239.98
2018-02-15T01:41:53.226Z,98237.90
2018-02-15T01:42:24.881Z,98244.67
2018-02-15T01:42:56.541Z,98243.81
2018-02-15T01:43:28.200Z,98239.13
2018-02-15T01:43:59.870Z,98239.13
2018-02-15T01:44:31.533Z,98234.92
2018-02-15T01:45:03.233Z,98245.13
2018-02-15T01:45:34.889Z,98238.33
2018-02-15T01:46:06.602Z,98237.05
2018-02-15T01:46:38.257Z,98234.88
2018-02-15T01:47:09.913Z,98242.97
2018-02-15T01:47:41.573Z,98241.27
2018-02-15T01:48:13.230Z,98238.75
2018-02-15T01:48:44.894Z,98241.30
2018-02-15T01:49:16.549Z,98235.88
2018-02-15T01:49:48.205Z,98243.48
2018-02-15T01:50:19.860Z,98247.73
2018-02-15T01:50:51.518Z,98247.73
2018-02-15T01:51:23.230Z,98243.44
2018-02-15T01:51:54.890Z,98243.01
2018-02-15T01:52:26.555Z,98243.86
2018-02-15T01:52:58.218Z,98240.03
2018-02-15T01:53:29.881Z,98241.73
2018-02-15T01:54:01.542Z,98241.30
2018-02-15T01:54:33.197Z,98239.61
2018-02-15T01:55:04.850Z,98244.29
2018-02-15T01:55:36.509Z,98239.19
2018-02-15T01:56:08.169Z,98236.20
2018-02-15T01:56:39.874Z,98240.03
2018-02-15T01:57:11.548Z,98237.01
2018-02-15T01:57:43.205Z,98241.30
2018-02-15T01:58:14.872Z,98234.07
2018-02-15T01:58:46.533Z,98233.61
2018-02-15T01:59:18.189Z,98237.86
2018-02-15T01:59:49.845Z,98232.33
2018-02-15T02:00:21.502Z,98233.13
2018-02-15T02:00:53.159Z,98228.92
2018-02-15T02:01:24.813Z,98230.24
2018-02-15T02:01:56.513Z,98237.06
2018-02-15T02:02:28.174Z,98232.00
2018-02-15T02:02:59.838Z,98237.95
2018-02-15T02:03:31.513Z,98230.68
2018-02-15T02:04:03.214Z,98231.53
2018-02-15T02:04:34.870Z,98231.14
2018-02-15T02:05:06.577Z,98230.72
2018-02-15T02:05:38.230Z,98231.95
2018-02-15T02:06:09.902Z,98229.83
2018-02-15T02:06:41.558Z,98230.30
2018-02-15T02:07:13.218Z,98225.61
2018-02-15T02:07:44.877Z,98229.86
2018-02-15T02:08:16.546Z,98231.57
2018-02-15T02:08:48.209Z,98235.36
2018-02-15T02:09:19.878Z,98234.07
2018-02-15T02:09:51.536Z,98233.23
2018-02-15T02:10:23.234Z,98237.95
2018-02-15T02:10:54.894Z,98234.59
2018-02-15T02:11:26.549Z,98226.89
2018-02-15T02:11:58.209Z,98231.52
2018-02-15T02:12:29.868Z,98231.06
2018-02-15T02:13:01.566Z,98229.35
2018-02-15T02:13:33.226Z,98233.22
2018-02-15T02:14:04.889Z,98230.72
2018-02-15T02:14:36.549Z,98234.55
2018-02-15T02:15:08.210Z,98229.44
2018-02-15T02:15:39.864Z,98231.99
2018-02-15T02:16:11.526Z,98230.77
2018-02-15T02:16:43.185Z,98231.95
2018-02-15T02:17:14.846Z,98228.97
2018-02-15T02:17:46.550Z,98229.86
2018-02-15T02:18:18.209Z,98227.31
2018-02-15T02:18:49.869Z,98231.99
2018-02-15T02:19:21.534Z,98228.16
2018-02-15T02:19:53.194Z,98225.62
2018-02-15T02:20:24.856Z,98229.88
2018-02-15T02:20:56.656Z,98216.30
2018-02-15T02:21:28.319Z,98221.41
2018-02-15T02:21:59.986Z,98225.24
2018-02-15T02:22:31.641Z,98216.34
2018-02-15T02:23:03.338Z,98220.56
2018-02-15T02:23:35.002Z,98196.55
2018-02-15T02:24:06.666Z,98220.55
2018-02-15T02:24:38.325Z,98218.00
2018-02-15T02:25:09.991Z,98216.73
2018-02-15T02:25:41.649Z,98212.89
2018-02-15T02:26:13.306Z,98216.72
2018-02-15T02:26:44.966Z,98215.41
2018-02-15T02:27:16.617Z,98218.42
2018-02-15T02:27:48.349Z,98216.31
2018-02-15T02:28:20.007Z,98215.50
2018-02-15T02:28:51.663Z,98213.38
2018-02-15T02:29:23.326Z,98217.20
2018-02-15T02:29:54.981Z,98220.60
2018-02-15T02:30:26.683Z,98218.00
2018-02-15T02:30:58.332Z,98216.69
2018-02-15T02:31:29.994Z,98216.30
2018-02-15T02:32:01.657Z,98218.00
2018-02-15T02:32:33.314Z,98217.58
2018-02-15T02:33:05.022Z,98210.34
2018-02-15T02:33:36.680Z,98210.78
2018-02-15T02:34:08.342Z,98208.22
2018-02-15T02:34:40.007Z,98205.67
2018-02-15T02:35:12.236Z,98209.92
2018-02-15T02:35:43.896Z,98209.07
2018-02-15T02:36:15.567Z,98207.38
2018-02-15T02:36:47.229Z,98210.77
2018-02-15T02:37:18.943Z,98207.80
2018-02-15T02:37:50.614Z,98206.52
2018-02-15T02:38:22.274Z,98206.56
2018-02-15T02:38:53.933Z,98211.67
2018-02-15T02:39:25.591Z,98211.24
2018-02-15T02:39:57.253Z,98208.27
2018-02-15T02:40:28.909Z,98209.54
2018-02-15T02:41:00.562Z,98211.20
2018-02-15T02:41:32.226Z,98203.16
2018-02-15T02:42:03.911Z,98212.09
2018-02-15T02:42:35.610Z,98208.70
2018-02-15T02:43:07.266Z,98206.14
2018-02-15T02:43:38.933Z,98201.89
2018-02-15T02:44:10.593Z,98206.19
2018-02-15T02:44:42.256Z,98203.20
2018-02-15T02:45:13.919Z,98207.84
2018-02-15T02:45:45.582Z,98201.89
2018-02-15T02:46:17.242Z,98204.01
2018-02-15T02:46:48.937Z,98206.98
2018-02-15T02:47:20.601Z,98211.67
2018-02-15T02:47:52.263Z,98206.56
2018-02-15T02:48:23.923Z,98206.56
2018-02-15T02:48:55.577Z,98207.84
2018-02-15T02:49:27.247Z,98206.14
2018-02-15T02:49:58.901Z,98212.09
2018-02-15T02:50:30.558Z,98207.42
2018-02-15T02:51:02.218Z,98203.97
2018-02-15T02:51:33.878Z,98213.28
2018-02-15T02:52:05.580Z,98208.17
2018-02-15T02:52:37.242Z,98206.05
2018-02-15T02:53:08.901Z,98212.00
2018-02-15T02:53:40.554Z,98208.17
2018-02-15T02:54:12.221Z,98208.98
2018-02-15T02:54:43.881Z,98209.83
2018-02-15T02:55:15.538Z,98209.87
2018-02-15T02:55:47.197Z,98208.98
2018-02-15T02:56:18.858Z,98209.39
2018-02-15T02:56:50.523Z,98217.95
2018-02-15T02:57:22.221Z,98210.68
2018-02-15T02:57:53.882Z,98211.38
2018-02-15T02:58:25.541Z,98210.16
2018-02-15T02:58:57.194Z,98213.12
2018-02-15T02:59:28.849Z,98214.93
2018-02-15T03:00:00.516Z,98214.17
2018-02-15T03:00:32.183Z,98208.66
2018-02-15T03:01:03.850Z,98209.87
2018-02-15T03:01:35.549Z,98209.03
2018-02-15T03:02:07.205Z,98212.85
2018-02-15T03:02:38.868Z,98212.00
2018-02-15T03:03:10.526Z,98213.70
2018-02-15T03:03:42.186Z,98204.34
2018-02-15T03:04:13.846Z,98206.09
2018-02-15T03:04:45.506Z,98209.08
2018-02-15T03:05:17.165Z,98204.82
2018-02-15T03:05:48.873Z,98205.70
2018-02-15T03:06:20.530Z,98209.55
2018-02-15T03:06:52.194Z,98204.10
2018-02-15T03:07:23.897Z,98202.41
2018-02-15T03:07:55.554Z,98205.39
2018-02-15T03:08:27.213Z,98206.23
2018-02-15T03:08:58.873Z,98198.16
2018-02-15T03:09:30.532Z,98203.69
2018-02-15T03:10:02.193Z,98209.27
2018-02-15T03:10:33.854Z,98199.91
2018-02-15T03:11:05.555Z,98203.35
2018-02-15T03:11:37.217Z,98202.50
2018-02-15T03:12:08.874Z,98202.94
2018-02-15T03:12:40.538Z,98200.00
2018-02-15T03:13:12.198Z,98200.84
2018-02-15T03:13:43.861Z,98208.92
2018-02-15T03:14:15.566Z,98203.83
2018-02-15T03:14:47.269Z,98198.77
2018-02-15T03:15:18.928Z,98202.64
2018-02-15T03:15:50.598Z,98200.55
2018-02-15T03:16:22.276Z,98203.07
2018-02-15T03:16:53.937Z,98204.81
2018-02-15T03:17:25.589Z,98204.39
2018-02-15T03:17:57.245Z,98200.19
2018-02-15T03:18:28.909Z,98199.72
2018-02-15T03:19:00.574Z,98203.97
2018-02-15T03:19:32.238Z,98201.03
2018-02-15T03:20:03.897Z,98200.61
2018-02-15T03:20:35.566Z,98204.87
2018-02-15T03:21:07.232Z,98200.23
2018-02-15T03:21:38.890Z,98197.30
2018-02-15T03:22:10.592Z,98200.70
2018-02-15T03:22:42.257Z,98200.70
2018-02-15T03:23:13.918Z,98201.17
2018-02-15T03:23:45.620Z,98205.00
2018-02-15T03:24:17.316Z,98199.43
2018-02-15T03:24:48.974Z,98208.34
2018-02-15T03:25:20.633Z,98198.58
2018-02-15T03:25:52.306Z,98207.51
2018-02-15T03:26:23.969Z,98199.00
2018-02-15T03:26:55.636Z,98203.25
2018-02-15T03:27:27.298Z,98205.42
2018-02-15T03:27:58.962Z,98207.08
2018-02-15T03:28:30.622Z,98200.70
2018-02-15T03:29:02.341Z,98205.38
2018-02-15T03:29:34.010Z,98202.79
2018-02-15T03:30:05.671Z,98207.03
2018-02-15T03:30:37.338Z,98207.03
2018-02-15T03:31:09.012Z,98206.18
2018-02-15T03:31:40.671Z,98209.55
2018-02-15T03:32:12.330Z,98208.70
2018-02-15T03:32:43.990Z,98209.25
2018-02-15T03:33:15.651Z,98211.20
2018-02-15T03:33:47.317Z,98211.11
2018-02-15T03:34:19.028Z,98208.94
2018-02-15T03:34:50.688Z,98207.66
2018-02-15T03:35:22.352Z,98207.61
2018-02-15T03:35:54.017Z,98209.31
2018-02-15T03:36:25.673Z,98205.91
2018-02-15T03:36:57.331Z,98209.27
2018-02-15T03:37:28.989Z,98212.66
2018-02-15T03:38:00.645Z,98207.98
2018-02-15T03:38:32.306Z,98216.48
2018-02-15T03:39:03.971Z,98211.77
2018-02-15T03:39:35.628Z,98213.94
2018-02-15T03:40:07.283Z,98215.22
2018-02-15T03:40:38.950Z,98210.44
2018-02-15T03:41:12.203Z,98213.98
2018-02-15T03:41:43.934Z,98218.89
2018-02-15T03:42:15.644Z,98213.31
2018-02-15T03:42:47.306Z,98213.95
2018-02-15T03:43:18.971Z,98218.47
2018-02-15T03:43:50.629Z,98223.40
2018-02-15T03:44:22.282Z,98214.80
2018-02-15T03:44:53.985Z,98215.92
2018-02-15T03:45:25.645Z,98220.79
2018-02-15T03:45:57.310Z,98221.00
2018-02-15T03:46:28.974Z,98219.47
2018-02-15T03:47:00.637Z,98215.80
2018-02-15T03:47:32.298Z,98226.97
2018-02-15T03:48:03.955Z,98222.02
2018-02-15T03:48:35.613Z,98220.01
2018-02-15T03:49:07.274Z,98225.17
2018-02-15T03:49:38.937Z,98222.70
2018-02-15T03:50:10.593Z,98223.20
2018-02-15T03:50:42.253Z,98223.66
2018-02-15T03:51:13.966Z,98225.36
2018-02-15T03:51:45.626Z,98220.58
2018-02-15T03:52:17.306Z,98222.17
2018-02-15T03:52:48.957Z,98222.05
2018-02-15T03:53:20.618Z,98224.03
2018-02-15T03:53:52.273Z,98218.82
2018-02-15T03:54:23.930Z,98216.23
2018-02-15T03:54:55.585Z,98224.14
2018-02-15T03:55:27.253Z,98225.25
2018-02-15T03:55:58.909Z,98222.57
2018-02-15T03:56:30.638Z,98227.53
2018-02-15T03:57:02.297Z,98226.13
2018-02-15T03:57:33.962Z,98225.99
2018-02-15T03:58:05.666Z,98225.84
2018-02-15T03:58:37.321Z,98223.25
2018-02-15T03:59:08.985Z,98225.86
2018-02-15T03:59:40.640Z,98223.34
2018-02-15T04:00:12.302Z,98223.81
2018-02-15T04:00:43.966Z,98221.73
2018-02-15T04:01:15.629Z,98215.36
2018-02-15T04:01:47.595Z,98215.36
2018-02-15T04:02:19.353Z,98217.52
2018-02-15T04:02:51.013Z,98216.63
2018-02-15T04:03:22.664Z,98218.71
2018-02-15T04:03:54.321Z,98211.91
2018-02-15T04:04:25.973Z,98222.49
2018-02-15T04:04:57.627Z,98217.34
2018-02-15T04:05:29.290Z,98215.94
2018-02-15T04:06:01.013Z,98216.39
2018-02-15T04:06:32.675Z,98212.90
2018-02-15T04:07:04.334Z,98216.25
2018-02-15T04:07:35.994Z,98214.89
2018-02-15T04:08:07.661Z,98211.05
2018-02-15T04:08:39.317Z,98208.97
2018-02-15T04:09:10.969Z,98213.66
2018-02-15T04:09:42.625Z,98214.45
2018-02-15T04:10:14.289Z,98212.23
2018-02-15T04:10:45.946Z,98215.16
2018-02-15T04:11:17.647Z,98216.48
2018-02-15T04:11:49.306Z,98215.58
2018-02-15T04:12:23.407Z,98220.27
2018-02-15T04:12:55.218Z,98214.69
2018-02-15T04:13:27.017Z,98219.36
2018-02-15T04:13:58.678Z,98217.70
2018-02-15T04:14:30.328Z,98215.16
2018-02-15T04:15:01.990Z,98216.48
2018-02-15T04:15:33.647Z,98220.26
2018-02-15T04:16:05.346Z,98218.57
2018-02-15T04:16:37.006Z,98220.27
2018-02-15T04:17:08.663Z,98216.06
2018-02-15T04:17:40.353Z,98217.34
2018-02-15T04:18:12.010Z,98224.20
2018-02-15T04:18:43.680Z,98218.66
2018-02-15T04:19:15.337Z,98224.20
2018-02-15T04:19:46.993Z,98216.06
2018-02-15T04:20:18.701Z,98219.08
2018-02-15T04:20:50.361Z,98215.73
2018-02-15T04:21:22.022Z,98219.57
2018-02-15T04:21:53.682Z,98213.23
2018-02-15T04:22:25.337Z,98209.39
2018-02-15T04:22:56.995Z,98209.41
2018-02-15T04:23:28.649Z,98208.97
2018-02-15T04:24:00.309Z,98212.85
2018-02-15T04:24:31.961Z,98205.15
2018-02-15T04:25:03.613Z,98206.89
2018-02-15T04:25:35.273Z,98198.81
2018-02-15T04:26:06.934Z,98209.45
2018-02-15T04:26:38.590Z,98199.28
2018-02-15T04:27:10.249Z,98201.83
2018-02-15T04:27:41.905Z,98200.99
2018-02-15T04:28:13.566Z,98203.68
2018-02-15T04:28:45.223Z,98197.25
2018-02-15T04:29:16.886Z,98199.81
2018-02-15T04:29:48.552Z,98202.36
2018-02-15T04:30:20.213Z,98198.95
2018-02-15T04:30:51.917Z,98196.84
2018-02-15T04:31:23.578Z,98199.00
2018-02-15T04:31:55.234Z,98196.45
2018-02-15T04:32:26.895Z,98196.07
2018-02-15T04:32:58.550Z,98191.81
2018-02-15T04:33:30.208Z,98192.20
2018-02-15T04:34:01.866Z,98191.77
2018-02-15T04:34:33.524Z,98192.63
2018-02-15T04:35:05.185Z,98192.24
2018-02-15T04:35:36.897Z,98190.12
2018-02-15T04:36:08.554Z,98190.12
2018-02-15T04:36:40.210Z,98193.09
2018-02-15T04:37:11.869Z,98189.66
2018-02-15T04:37:43.533Z,98191.36
2018-02-15T04:38:15.190Z,98192.25
2018-02-15T04:38:46.851Z,98190.55
2018-02-15T04:39:18.505Z,98189.22
2018-02-15T04:39:50.161Z,98191.36
2018-02-15T04:40:21.815Z,98189.27
2018-02-15T04:40:53.517Z,98192.24
2018-02-15T04:41:25.175Z,98190.97
2018-02-15T04:41:56.838Z,98189.73
2018-02-15T04:42:28.490Z,98188.47
2018-02-15T04:43:00.145Z,98189.36
2018-02-15T04:43:31.804Z,98192.72
2018-02-15T04:44:03.471Z,98188.94
2018-02-15T04:44:35.129Z,98192.72
2018-02-15T04:45:06.832Z,98188.91
2018-02-15T04:45:38.490Z,98189.80
2018-02-15T04:46:10.150Z,98186.82
2018-02-15T04:46:41.810Z,98188.09
2018-02-15T04:47:13.473Z,98185.11
2018-02-15T04:47:45.125Z,98186.86
2018-02-15T04:48:16.823Z,98185.16
2018-02-15T04:48:48.486Z,98180.02
2018-02-15T04:49:20.145Z,98181.72
2018-02-15T04:49:51.802Z,98177.08
2018-02-15T04:50:23.466Z,98177.55
2018-02-15T04:50:55.125Z,98180.91
2018-02-15T04:51:26.786Z,98178.36
2018-02-15T04:51:58.442Z,98174.95
2018-02-15T04:52:30.118Z,98177.09
2018-02-15T04:53:01.777Z,98168.16
2018-02-15T04:53:33.436Z,98172.83
2018-02-15T04:54:05.102Z,98171.17
2018-02-15T04:54:36.758Z,98172.45
2018-02-15T04:55:08.453Z,98175.42
2018-02-15T04:55:40.114Z,98169.05
2018-02-15T04:56:11.810Z,98170.33
2018-02-15T04:56:43.477Z,98171.22
2018-02-15T04:57:15.138Z,98170.80
2018-02-15T04:57:46.798Z,98166.98
2018-02-15T04:58:18.457Z,98170.80
2018-02-15T04:58:50.115Z,98168.72
2018-02-15T04:59:21.781Z,98172.08
2018-02-15T04:59:53.437Z,98172.50
2018-02-15T05:00:25.101Z,98175.47
2018-02-15T05:00:56.811Z,98167.86
2018-02-15T05:01:28.470Z,98170.42
2018-02-15T05:02:00.130Z,98172.97
2018-02-15T05:02:31.789Z,98178.07
2018-02-15T05:03:03.456Z,98174.67
2018-02-15T05:03:35.112Z,98178.54
2018-02-15T05:04:06.770Z,98178.59
2018-02-15T05:04:38.436Z,98176.04
2018-02-15T05:05:10.094Z,98178.64
2018-02-15T05:05:41.751Z,98182.89
2018-02-15T05:06:13.453Z,98185.02
2018-02-15T05:06:45.116Z,98184.64
2018-02-15T05:07:16.773Z,98178.73
2018-02-15T05:07:48.425Z,98181.70
2018-02-15T05:08:20.131Z,98181.67
2018-02-15T05:08:51.789Z,98181.67
2018-02-15T05:09:23.454Z,98175.77
2018-02-15T05:09:55.108Z,98179.64
2018-02-15T05:10:26.763Z,98183.04
2018-02-15T05:10:58.425Z,98173.27
2018-02-15T05:11:30.082Z,98176.70
2018-02-15T05:12:01.742Z,98177.56
2018-02-15T05:12:33.403Z,98178.45
2018-02-15T05:13:05.061Z,98181.00
2018-02-15T05:13:36.761Z,98178.45
2018-02-15T05:14:08.418Z,98179.34
2018-02-15T05:14:40.077Z,98175.09
2018-02-15T05:15:11.729Z,98179.80
2018-02-15T05:15:43.393Z,98176.45
2018-02-15T05:16:15.091Z,98179.42
2018-02-15T05:16:46.749Z,98183.22
2018-02-15T05:17:18.405Z,98178.16
2018-02-15T05:17:50.062Z,98181.56
2018-02-15T05:18:21.726Z,98182.83
2018-02-15T05:18:53.386Z,98184.96
2018-02-15T05:19:25.046Z,98180.32
2018-02-15T05:19:56.709Z,98179.09
2018-02-15T05:20:28.410Z,98183.38
2018-02-15T05:21:00.076Z,98182.11
2018-02-15T05:21:31.738Z,98183.38
2018-02-15T05:22:03.397Z,98185.47
2018-02-15T05:22:35.062Z,98182.53
2018-02-15T05:23:06.726Z,98183.80
2018-02-15T05:23:38.384Z,98181.64
2018-02-15T05:24:10.047Z,98183.77
2018-02-15T05:24:41.702Z,98183.38
2018-02-15T05:25:13.402Z,98184.66
2018-02-15T05:25:45.058Z,98178.70
2018-02-15T05:26:16.718Z,98182.11
2018-02-15T05:26:48.369Z,98183.81
2018-02-15T05:27:20.029Z,98178.28
2018-02-15T05:27:51.689Z,98182.53
2018-02-15T05:28:23.350Z,98180.41
2018-02-15T05:28:55.010Z,98184.23
2018-02-15T05:29:26.705Z,98182.95
2018-02-15T05:29:58.371Z,98181.68
2018-02-15T05:30:30.030Z,98189.72
2018-02-15T05:31:01.693Z,98180.83
2018-02-15T05:31:33.351Z,98187.63
2018-02-15T05:32:05.010Z,98185.89
2018-02-15T05:32:36.669Z,98190.99
2018-02-15T05:33:08.326Z,98186.31
2018-02-15T05:33:39.984Z,98185.04
2018-02-15T05:34:11.661Z,98184.19
2018-02-15T05:34:43.317Z,98187.55
2018-02-15T05:35:14.973Z,98187.13
2018-02-15T05:35:46.635Z,98188.83
2018-02-15T05:36:18.348Z,98183.77
2018-02-15T05:36:50.005Z,98189.68
2018-02-15T05:37:21.660Z,98185.84
2018-02-15T05:37:53.317Z,98187.13
2018-02-15T05:38:24.981Z,98187.97
2018-02-15T05:38:56.646Z,98190.09
2018-02-15T05:39:28.305Z,98187.55
2018-02-15T05:39:59.961Z,98188.82
2018-02-15T05:40:31.621Z,98195.59
2018-02-15T05:41:03.278Z,98188.40
2018-02-15T05:41:34.978Z,98190.95
2018-02-15T05:42:06.634Z,98195.58
2018-02-15T05:42:38.292Z,98191.75
2018-02-15T05:43:09.946Z,98192.19
2018-02-15T05:43:41.604Z,98195.16
2018-02-15T05:44:13.266Z,98196.86
2018-02-15T05:44:44.929Z,98193.03
2018-02-15T05:45:16.592Z,98193.88
2018-02-15T05:45:48.263Z,98196.39
2018-02-15T05:46:19.966Z,98197.66
2018-02-15T05:46:51.626Z,98191.72
2018-02-15T05:47:23.282Z,98195.53
2018-02-15T05:47:54.933Z,98195.58
2018-02-15T05:48:26.592Z,98203.19
2018-02-15T05:48:58.253Z,98197.28
2018-02-15T05:49:29.917Z,98201.48
2018-02-15T05:50:01.588Z,98195.92
2018-02-15T05:50:33.285Z,98196.81
2018-02-15T05:51:04.946Z,98204.03
2018-02-15T05:51:36.646Z,98194.69
2018-02-15T05:52:08.305Z,98200.64
2018-02-15T05:52:39.963Z,98197.23
2018-02-15T05:53:11.624Z,98197.20
2018-02-15T05:53:43.285Z,98195.07
2018-02-15T05:54:14.994Z,98203.57
2018-02-15T05:54:46.665Z,98197.20
2018-02-15T05:55:18.322Z,98198.89
2018-02-15T05:55:49.981Z,98195.88
2018-02-15T05:56:21.638Z,98200.17
2018-02-15T05:56:53.297Z,98198.39
2018-02-15T05:57:24.962Z,98197.58
2018-02-15T05:57:56.620Z,98198.39
2018-02-15T05:58:28.278Z,98201.36
2018-02-15T05:58:59.933Z,98197.11
2018-02-15T05:59:31.589Z,98196.27
2018-02-15T06:00:03.249Z,98197.53
2018-02-15T06:00:34.912Z,98203.05
2018-02-15T06:01:06.574Z,98200.47
2018-02-15T06:01:38.234Z,98204.30
2018-02-15T06:02:09.894Z,98201.74
2018-02-15T06:02:41.541Z,98198.68
2018-02-15T06:03:13.196Z,98199.53
2018-02-15T06:03:44.866Z,98199.95
2018-02-15T06:04:16.529Z,98200.83
2018-02-15T06:04:48.189Z,98204.63
2018-02-15T06:05:19.895Z,98204.19
2018-02-15T06:05:51.551Z,98202.95
2018-02-15T06:06:23.205Z,98202.95
2018-02-15T06:06:54.864Z,98199.52
2018-02-15T06:07:26.525Z,98202.02
2018-02-15T06:07:58.181Z,98200.31
2018-02-15T06:08:29.837Z,98202.83
2018-02-15T06:09:01.504Z,98201.13
2018-02-15T06:09:33.176Z,98197.22
2018-02-15T06:10:04.837Z,98197.67
2018-02-15T06:10:36.537Z,98199.77
2018-02-15T06:11:08.190Z,98195.97
2018-02-15T06:11:39.842Z,98199.34